McKinnon, Georgia
Current Conditions -  °F | °C
As of 5:55 PM on Tuesday 27 Jan 2015 (Local Time) from KJES Reporting Station
Clear Clear  
Wind Chill: 54°   Ceiling: Unl
Heat Index: 54°   Visibility: 10mi
Dew Point: 34°   Wind: 3mph
Humidity: 47%   Direction: 360°N
Pressure: 29.96"   Gusts: NA
Location:  31.5041°N, 81.8277°W
Report Text: KJES 272255Z AUTO 36003KT 10SM CLR 12/01 A2996 RMK AO2
Loading
Personal Weather Stations






























Interactive Weather Map New forecast layout! Learn more

10-Day Weather Forecast

Advertisements
Track Severe Weather on mobile